createdAt,value
2023-05-06T00:00:44.925Z,3.97
2023-05-06T00:03:13.899Z,3.45
2023-05-06T00:05:42.966Z,4.28
2023-05-06T00:08:11.255Z,4.32
2023-05-06T00:10:39.454Z,3.30
2023-05-06T00:13:08.338Z,3.92
2023-05-06T00:15:37.793Z,4.10
2023-05-06T00:18:06.355Z,4.10
2023-05-06T00:20:34.807Z,4.05
2023-05-06T00:23:02.892Z,4.20
2023-05-06T00:25:31.152Z,4.57
2023-05-06T00:27:59.333Z,4.53
2023-05-06T00:30:27.681Z,3.72
2023-05-06T00:32:57.376Z,4.93
2023-05-06T00:35:25.613Z,4.72
2023-05-06T00:37:58.704Z,4.63
2023-05-06T00:40:26.886Z,4.38
2023-05-06T00:42:54.950Z,5.13
2023-05-06T00:45:23.133Z,5.72
2023-05-06T00:47:51.427Z,4.85
2023-05-06T00:50:21.130Z,5.00
2023-05-06T00:52:49.476Z,5.13
2023-05-06T00:55:18.016Z,5.38
2023-05-06T00:57:46.759Z,6.63
2023-05-06T01:00:15.916Z,5.70
2023-05-06T01:02:47.602Z,5.93
2023-05-06T01:05:17.202Z,5.30
2023-05-06T01:07:57.423Z,5.72
2023-05-06T01:10:31.118Z,5.75
2023-05-06T01:13:07.462Z,5.40
2023-05-06T01:15:39.590Z,5.97
2023-05-06T01:18:12.316Z,5.90
2023-05-06T01:20:42.383Z,6.13
2023-05-06T01:23:13.615Z,7.30
2023-05-06T01:25:42.325Z,7.50
2023-05-06T01:28:11.912Z,7.35
2023-05-06T01:30:47.995Z,6.75
2023-05-06T01:33:20.667Z,5.53
2023-05-06T01:36:00.555Z,6.60
2023-05-06T01:38:43.824Z,6.53
2023-05-06T01:41:16.500Z,6.90
2023-05-06T01:43:46.588Z,7.47
2023-05-06T01:46:19.569Z,7.57
2023-05-06T01:48:51.273Z,6.78
2023-05-06T01:51:19.554Z,6.43
2023-05-06T01:53:49.108Z,7.03
2023-05-06T01:56:18.814Z,6.78
2023-05-06T01:58:47.059Z,7.13
2023-05-06T02:01:15.515Z,6.78
2023-05-06T02:03:43.754Z,7.57
2023-05-06T02:06:12.117Z,8.27
2023-05-06T02:08:41.557Z,7.97
2023-05-06T02:11:11.030Z,7.13
2023-05-06T02:13:39.072Z,7.05
2023-05-06T02:16:09.060Z,6.72
2023-05-06T02:18:37.338Z,6.95
2023-05-06T02:21:06.204Z,7.43
2023-05-06T02:23:34.533Z,7.85
2023-05-06T02:26:03.127Z,8.07
2023-05-06T02:28:32.938Z,7.43
2023-05-06T02:31:01.085Z,8.00
2023-05-06T02:33:29.609Z,7.28
2023-05-06T02:35:58.715Z,8.15
2023-05-06T02:38:27.377Z,9.30
2023-05-06T02:40:55.551Z,8.32
2023-05-06T02:43:23.901Z,7.85
2023-05-06T02:45:53.981Z,7.93
2023-05-06T02:48:22.115Z,8.15
2023-05-06T02:50:50.222Z,8.93
2023-05-06T02:53:18.439Z,8.25
2023-05-06T02:55:46.649Z,8.27
2023-05-06T02:58:15.226Z,9.02
2023-05-06T03:00:43.325Z,8.52
2023-05-06T03:03:13.264Z,8.70
2023-05-06T03:05:41.839Z,9.40
2023-05-06T03:08:10.400Z,8.80
2023-05-06T03:10:38.479Z,7.13
2023-05-06T03:13:07.021Z,7.70
2023-05-06T03:15:35.294Z,9.40
2023-05-06T03:18:03.409Z,8.30
2023-05-06T03:20:33.025Z,8.00
2023-05-06T03:23:01.723Z,10.15
2023-05-06T03:25:29.812Z,10.35
2023-05-06T03:27:57.987Z,11.10
2023-05-06T03:30:26.333Z,9.82
2023-05-06T03:32:55.971Z,9.70
2023-05-06T03:35:24.770Z,9.85
2023-05-06T03:37:54.401Z,8.85
2023-05-06T03:40:22.505Z,8.50
2023-05-06T03:42:51.104Z,8.88
2023-05-06T03:45:19.591Z,9.35
2023-05-06T03:47:48.354Z,9.63
2023-05-06T03:50:17.163Z,9.15
2023-05-06T03:52:45.816Z,9.32
2023-05-06T03:55:15.539Z,10.15
2023-05-06T03:57:43.853Z,9.02
2023-05-06T04:00:13.445Z,8.88
2023-05-06T04:02:42.764Z,9.60
2023-05-06T04:05:11.660Z,9.20
2023-05-06T04:07:40.102Z,8.95
2023-05-06T04:10:09.898Z,9.32
2023-05-06T04:12:40.109Z,9.20
2023-05-06T04:15:09.713Z,9.10
2023-05-06T04:17:38.443Z,10.20
2023-05-06T04:20:08.681Z,10.13
2023-05-06T04:22:37.123Z,9.85
2023-05-06T04:25:06.210Z,11.05
2023-05-06T04:27:34.595Z,10.18
2023-05-06T04:30:04.106Z,10.82
2023-05-06T04:32:32.363Z,11.63
2023-05-06T04:35:00.812Z,11.07
2023-05-06T04:37:31.037Z,10.63
2023-05-06T04:39:59.394Z,10.65
2023-05-06T04:42:27.635Z,9.45
2023-05-06T04:44:55.939Z,10.60
2023-05-06T04:47:25.746Z,10.93
2023-05-06T04:49:54.455Z,10.52
2023-05-06T04:52:22.731Z,10.05
2023-05-06T04:54:50.989Z,8.15
2023-05-06T04:57:19.431Z,8.32
2023-05-06T04:59:47.568Z,10.80
2023-05-06T05:02:15.981Z,10.23
2023-05-06T05:04:45.740Z,9.50
2023-05-06T05:07:14.011Z,9.25
2023-05-06T05:09:43.230Z,10.02
2023-05-06T05:12:11.333Z,11.38
2023-05-06T05:14:40.076Z,10.95
2023-05-06T05:17:08.333Z,10.80
2023-05-06T05:19:36.488Z,10.73
2023-05-06T05:22:05.989Z,9.18
2023-05-06T05:24:34.493Z,9.52
2023-05-06T05:27:03.984Z,9.25
2023-05-06T05:29:32.699Z,9.30
2023-05-06T05:32:01.000Z,9.20
2023-05-06T05:34:29.644Z,9.50
2023-05-06T05:36:58.333Z,8.63
2023-05-06T05:39:28.056Z,9.57
2023-05-06T05:41:56.154Z,9.88
2023-05-06T05:44:24.434Z,9.25
2023-05-06T05:46:52.760Z,9.90
2023-05-06T05:49:21.087Z,8.88
2023-05-06T05:51:50.697Z,9.88
2023-05-06T05:54:18.960Z,8.60
2023-05-06T05:56:48.496Z,8.38
2023-05-06T05:59:16.937Z,8.20
2023-05-06T06:01:45.042Z,7.85
2023-05-06T06:04:13.195Z,7.88
2023-05-06T06:06:41.469Z,8.32
2023-05-06T06:09:10.596Z,8.25
2023-05-06T06:11:38.884Z,6.60
2023-05-06T06:14:08.505Z,8.48
2023-05-06T06:16:38.954Z,7.53
2023-05-06T06:19:07.739Z,7.40
2023-05-06T06:21:36.466Z,6.00
2023-05-06T06:24:05.229Z,5.43
2023-05-06T06:26:33.814Z,5.38
2023-05-06T06:29:02.593Z,5.63
2023-05-06T06:31:35.062Z,5.60
2023-05-06T06:34:06.476Z,6.32
2023-05-06T06:36:34.927Z,5.93
2023-05-06T06:39:03.272Z,5.75
2023-05-06T06:41:31.668Z,6.47
2023-05-06T06:44:00.354Z,5.60
2023-05-06T06:46:29.177Z,5.63
2023-05-06T06:48:59.023Z,5.63
2023-05-06T06:51:27.223Z,4.88
2023-05-06T06:53:56.386Z,5.10
2023-05-06T06:56:25.152Z,5.43
2023-05-06T06:58:53.630Z,5.70
2023-05-06T07:01:22.299Z,5.63
2023-05-06T07:03:50.806Z,5.20
2023-05-06T07:06:20.445Z,6.35
2023-05-06T07:08:49.802Z,4.95
2023-05-06T07:11:18.048Z,4.72
2023-05-06T07:13:46.176Z,5.13
2023-05-06T07:16:14.996Z,4.93
2023-05-06T07:18:43.692Z,4.38
2023-05-06T07:21:12.464Z,4.55
2023-05-06T07:23:41.978Z,4.50
2023-05-06T07:26:10.277Z,3.70
2023-05-06T07:28:38.550Z,4.47
2023-05-06T07:31:06.857Z,3.78
2023-05-06T07:33:35.256Z,4.10
2023-05-06T07:36:03.678Z,4.15
2023-05-06T07:38:32.597Z,4.13
2023-05-06T07:41:02.111Z,4.35
2023-05-06T07:43:30.480Z,3.97
2023-05-06T07:46:02.990Z,4.47
2023-05-06T07:48:31.914Z,3.65
2023-05-06T07:51:01.401Z,3.83
2023-05-06T07:53:29.605Z,3.85
2023-05-06T07:56:02.587Z,4.35
2023-05-06T07:58:32.922Z,4.80
2023-05-06T08:01:01.409Z,4.28
2023-05-06T08:03:29.622Z,4.68
2023-05-06T08:05:58.577Z,4.53
2023-05-06T08:08:28.291Z,4.05
2023-05-06T08:10:57.210Z,4.68
2023-05-06T08:13:25.992Z,4.60
2023-05-06T08:15:56.103Z,5.60
2023-05-06T08:18:24.384Z,5.38
2023-05-06T08:20:52.985Z,5.18
2023-05-06T08:23:22.167Z,4.40
2023-05-06T08:25:51.114Z,4.85
2023-05-06T08:28:19.387Z,4.20
2023-05-06T08:30:48.685Z,4.70
2023-05-06T08:33:20.257Z,5.93
2023-05-06T08:35:49.855Z,5.10
2023-05-06T08:38:18.380Z,4.78
2023-05-06T08:40:46.675Z,4.57
2023-05-06T08:43:16.270Z,4.95
2023-05-06T08:45:44.855Z,5.05
2023-05-06T08:48:13.837Z,5.75
2023-05-06T08:50:44.812Z,5.05
2023-05-06T08:53:14.194Z,4.40
2023-05-06T08:55:43.299Z,4.22
2023-05-06T08:58:15.853Z,4.00
2023-05-06T09:00:44.764Z,4.72
2023-05-06T09:03:13.871Z,4.80
2023-05-06T09:05:44.387Z,4.60
2023-05-06T09:08:13.100Z,4.82
2023-05-06T09:10:45.772Z,4.95
2023-05-06T09:13:15.749Z,4.43
2023-05-06T09:15:47.888Z,3.90
2023-05-06T09:18:17.493Z,4.15
2023-05-06T09:20:48.877Z,3.65
2023-05-06T09:23:18.549Z,3.63
2023-05-06T09:25:49.870Z,3.50
2023-05-06T09:28:18.077Z,3.47
2023-05-06T09:30:47.822Z,3.38
2023-05-06T09:33:16.672Z,3.22
2023-05-06T09:35:47.008Z,2.80
2023-05-06T09:38:15.796Z,2.75
2023-05-06T09:40:44.395Z,2.63
2023-05-06T09:43:15.699Z,3.53
2023-05-06T09:45:45.082Z,2.88
2023-05-06T09:48:13.491Z,3.50
2023-05-06T09:50:42.691Z,2.00
2023-05-06T09:53:14.804Z,2.08
2023-05-06T09:55:44.317Z,2.10
2023-05-06T09:58:14.946Z,2.35
2023-05-06T10:00:43.841Z,2.13
2023-05-06T10:03:15.485Z,2.35
2023-05-06T10:05:45.128Z,1.75
2023-05-06T10:08:18.755Z,1.65
2023-05-06T10:10:48.415Z,1.95
2023-05-06T10:13:17.614Z,2.65
2023-05-06T10:15:48.268Z,2.33
2023-05-06T10:18:19.056Z,1.75
2023-05-06T10:20:48.867Z,1.30
2023-05-06T10:23:26.243Z,1.10
2023-05-06T10:25:58.492Z,1.20
2023-05-06T10:28:30.904Z,1.83
2023-05-06T10:31:01.036Z,1.63
2023-05-06T10:33:30.625Z,1.70
2023-05-06T10:36:11.314Z,2.10
2023-05-06T10:38:43.826Z,2.13
2023-05-06T10:41:12.725Z,1.70
2023-05-06T10:43:42.670Z,2.10
2023-05-06T10:46:12.657Z,1.15
2023-05-06T10:49:02.075Z,2.03
2023-05-06T10:51:30.537Z,1.65
2023-05-06T10:54:05.781Z,1.92
2023-05-06T10:56:35.263Z,1.25
2023-05-06T10:59:08.170Z,1.33
2023-05-06T11:01:37.624Z,0.90
2023-05-06T11:04:14.271Z,1.15
2023-05-06T11:06:44.906Z,1.00
2023-05-06T11:09:24.201Z,0.82
2023-05-06T11:12:02.137Z,0.95
2023-05-06T11:14:32.043Z,1.30
2023-05-06T11:17:01.835Z,0.90
2023-05-06T11:19:31.348Z,1.08
2023-05-06T11:22:01.385Z,1.08
2023-05-06T11:24:32.707Z,1.05
2023-05-06T11:27:01.850Z,0.82
2023-05-06T11:29:30.848Z,1.15
2023-05-06T11:31:59.698Z,0.90
2023-05-06T11:34:29.820Z,0.80
2023-05-06T11:37:02.813Z,0.88
2023-05-06T11:39:39.990Z,0.43
2023-05-06T11:42:09.638Z,0.63
2023-05-06T11:44:39.837Z,1.02
2023-05-06T11:47:09.733Z,0.50
2023-05-06T11:49:39.302Z,0.75
2023-05-06T11:52:07.990Z,0.73
2023-05-06T11:54:40.095Z,0.75
2023-05-06T11:57:09.330Z,0.68
2023-05-06T11:59:38.701Z,0.93
2023-05-06T12:02:09.056Z,0.80
2023-05-06T12:04:41.853Z,0.60
2023-05-06T12:07:11.915Z,0.90
2023-05-06T12:09:44.176Z,0.75
2023-05-06T12:12:14.058Z,0.75
2023-05-06T12:14:42.771Z,0.63
2023-05-06T12:17:11.481Z,0.98
2023-05-06T12:19:40.669Z,0.70
2023-05-06T12:22:22.875Z,0.77
2023-05-06T12:24:53.302Z,1.02
2023-05-06T12:27:33.105Z,0.80
2023-05-06T12:30:04.380Z,0.80
2023-05-06T12:32:33.441Z,1.17
2023-05-06T12:35:07.552Z,0.68
2023-05-06T12:37:36.201Z,0.60
2023-05-06T12:40:08.097Z,0.85
2023-05-06T12:42:36.863Z,0.70
2023-05-06T12:45:17.798Z,0.95
2023-05-06T12:47:56.700Z,0.77
2023-05-06T12:50:36.724Z,0.68
2023-05-06T12:53:06.207Z,0.73
2023-05-06T12:55:38.190Z,0.52
2023-05-06T12:58:17.205Z,0.75
2023-05-06T13:00:48.810Z,0.88
2023-05-06T13:03:17.625Z,0.68
2023-05-06T13:05:46.566Z,0.80
2023-05-06T13:08:15.106Z,0.80
2023-05-06T13:10:45.966Z,0.68
2023-05-06T13:13:14.989Z,0.70
2023-05-06T13:15:43.471Z,0.68
2023-05-06T13:18:11.953Z,0.45
2023-05-06T13:20:41.634Z,0.90
2023-05-06T13:23:10.518Z,1.25
2023-05-06T13:25:51.688Z,0.60
2023-05-06T13:28:28.766Z,0.60
2023-05-06T13:30:56.999Z,0.98
2023-05-06T13:33:25.513Z,0.50
2023-05-06T13:35:54.445Z,0.60
2023-05-06T13:38:23.142Z,0.60
2023-05-06T13:40:53.256Z,0.80
2023-05-06T13:43:22.456Z,0.68
2023-05-06T13:45:52.400Z,0.63
2023-05-06T13:48:21.099Z,0.65
2023-05-06T13:50:49.377Z,0.68
2023-05-06T13:53:18.028Z,0.70
2023-05-06T13:55:47.335Z,0.73
2023-05-06T13:58:17.302Z,0.50
2023-05-06T14:00:45.950Z,0.60
2023-05-06T14:03:15.625Z,0.50
2023-05-06T14:05:44.043Z,0.57
2023-05-06T14:08:12.268Z,0.50
2023-05-06T14:10:41.047Z,0.80
2023-05-06T14:13:10.503Z,0.60
2023-05-06T14:15:39.252Z,0.57
2023-05-06T14:18:08.582Z,0.57
2023-05-06T14:20:38.675Z,0.60
2023-05-06T14:23:09.323Z,0.55
2023-05-06T14:25:37.969Z,0.80
2023-05-06T14:28:06.797Z,0.93
2023-05-06T14:30:37.625Z,1.60
2023-05-06T14:33:07.072Z,0.80
2023-05-06T14:35:36.048Z,0.60
2023-05-06T14:38:06.401Z,0.98
2023-05-06T14:40:37.168Z,0.43
2023-05-06T14:43:06.420Z,0.75
2023-05-06T14:45:35.838Z,0.60
2023-05-06T14:48:05.413Z,0.52
2023-05-06T14:50:33.983Z,0.50
2023-05-06T14:53:03.704Z,1.85
2023-05-06T14:55:34.737Z,1.60
2023-05-06T14:58:03.879Z,1.10
2023-05-06T15:00:32.471Z,0.50
2023-05-06T15:03:01.333Z,0.40
2023-05-06T15:05:30.200Z,0.40
2023-05-06T15:07:59.154Z,0.50
2023-05-06T15:10:27.607Z,1.05
2023-05-06T15:12:57.872Z,0.93
2023-05-06T15:15:26.536Z,0.50
2023-05-06T15:17:56.194Z,0.60
2023-05-06T15:20:25.166Z,0.45
2023-05-06T15:22:53.581Z,0.50
2023-05-06T15:25:34.437Z,0.40
2023-05-06T15:28:07.277Z,0.45
2023-05-06T15:30:35.896Z,0.40
2023-05-06T15:33:05.036Z,0.82
2023-05-06T15:35:39.182Z,0.80
2023-05-06T15:38:07.885Z,0.43
2023-05-06T15:40:36.849Z,0.57
2023-05-06T15:43:08.841Z,0.50
2023-05-06T15:45:37.755Z,0.50
2023-05-06T15:48:06.829Z,0.80
2023-05-06T15:50:37.527Z,0.73
2023-05-06T15:53:06.164Z,0.32
2023-05-06T15:55:43.734Z,0.75
2023-05-06T15:58:14.592Z,0.73
2023-05-06T16:00:43.270Z,0.38
2023-05-06T16:03:12.502Z,0.60
2023-05-06T16:05:42.744Z,0.47
2023-05-06T16:08:11.310Z,0.45
2023-05-06T16:10:39.810Z,0.40
2023-05-06T16:13:08.477Z,0.40
2023-05-06T16:15:38.541Z,0.45
2023-05-06T16:18:07.327Z,0.65
2023-05-06T16:20:39.063Z,0.60
2023-05-06T16:23:21.053Z,0.70
2023-05-06T16:25:50.415Z,0.30
2023-05-06T16:28:19.282Z,0.60
2023-05-06T16:30:49.698Z,0.43
2023-05-06T16:33:18.498Z,0.55
2023-05-06T16:35:47.531Z,0.40
2023-05-06T16:38:16.155Z,0.60
2023-05-06T16:40:51.967Z,0.30
2023-05-06T16:43:21.389Z,0.55
2023-05-06T16:45:51.617Z,1.13
2023-05-06T16:48:21.128Z,1.23
2023-05-06T16:50:50.085Z,1.00
2023-05-06T16:53:18.772Z,0.43
2023-05-06T16:55:51.699Z,0.55
2023-05-06T16:58:20.665Z,0.90
2023-05-06T17:00:53.434Z,0.90
2023-05-06T17:03:21.955Z,0.60
2023-05-06T17:05:52.710Z,0.68
2023-05-06T17:08:22.994Z,0.60
2023-05-06T17:10:53.045Z,0.80
2023-05-06T17:13:21.712Z,0.77
2023-05-06T17:15:52.003Z,0.63
2023-05-06T17:18:20.455Z,0.60
2023-05-06T17:20:55.942Z,0.70
2023-05-06T17:23:25.757Z,0.50
2023-05-06T17:25:54.243Z,0.60
2023-05-06T17:28:22.690Z,0.60
2023-05-06T17:30:53.010Z,0.85
2023-05-06T17:33:21.993Z,0.80
2023-05-06T17:35:50.944Z,1.13
2023-05-06T17:38:19.528Z,1.10
2023-05-06T17:40:48.584Z,0.73
2023-05-06T17:43:17.264Z,0.90
2023-05-06T17:45:47.829Z,0.68
2023-05-06T17:48:18.489Z,0.70
2023-05-06T17:50:46.980Z,0.65
2023-05-06T17:53:15.703Z,0.88
2023-05-06T17:55:44.257Z,1.15
2023-05-06T17:58:13.024Z,0.70
2023-05-06T18:00:41.774Z,0.90
2023-05-06T18:03:10.441Z,0.70
2023-05-06T18:05:41.279Z,1.65
2023-05-06T18:08:10.318Z,0.90
2023-05-06T18:10:41.214Z,0.98
2023-05-06T18:13:11.986Z,0.55
2023-05-06T18:15:40.947Z,0.88
2023-05-06T18:18:10.249Z,0.73
2023-05-06T18:20:41.149Z,0.90
2023-05-06T18:23:10.608Z,0.90
2023-05-06T18:25:39.545Z,1.13
2023-05-06T18:28:08.799Z,1.00
2023-05-06T18:30:37.513Z,1.02
2023-05-06T18:33:06.685Z,1.10
2023-05-06T18:35:35.500Z,1.70
2023-05-06T18:38:05.958Z,2.35
2023-05-06T18:40:35.726Z,1.55
2023-05-06T18:43:04.744Z,1.30
2023-05-06T18:45:33.141Z,1.40
2023-05-06T18:48:01.532Z,1.23
2023-05-06T18:50:30.086Z,1.25
2023-05-06T18:52:58.788Z,1.40
2023-05-06T18:55:29.610Z,1.40
2023-05-06T18:57:59.290Z,1.30
2023-05-06T19:00:29.144Z,1.67
2023-05-06T19:02:58.125Z,1.65
2023-05-06T19:05:27.537Z,1.40
2023-05-06T19:07:57.511Z,1.38
2023-05-06T19:10:27.120Z,1.60
2023-05-06T19:12:57.226Z,1.67
2023-05-06T19:15:25.755Z,2.17
2023-05-06T19:17:54.532Z,2.38
2023-05-06T19:20:23.500Z,5.78
2023-05-06T19:22:52.798Z,3.53
2023-05-06T19:25:22.730Z,5.88
2023-05-06T19:27:52.998Z,5.72
2023-05-06T19:30:24.038Z,4.13
2023-05-06T19:32:52.490Z,5.60
2023-05-06T19:35:22.653Z,4.43
2023-05-06T19:37:51.322Z,4.30
2023-05-06T19:40:20.092Z,4.97
2023-05-06T19:42:49.191Z,4.78
2023-05-06T19:45:19.696Z,4.75
2023-05-06T19:47:50.640Z,4.35
2023-05-06T19:50:19.884Z,4.13
2023-05-06T19:52:48.415Z,3.38
2023-05-06T19:55:18.459Z,4.95
2023-05-06T19:57:47.159Z,8.88
2023-05-06T20:00:18.468Z,6.32
2023-05-06T20:02:51.168Z,4.78
2023-05-06T20:05:19.722Z,6.68
2023-05-06T20:07:49.190Z,4.43
2023-05-06T20:10:18.263Z,2.92
2023-05-06T20:12:47.961Z,3.40
2023-05-06T20:15:16.968Z,2.90
2023-05-06T20:17:45.356Z,3.50
2023-05-06T20:20:16.009Z,3.92
2023-05-06T20:22:44.866Z,4.25
2023-05-06T20:25:16.299Z,4.80
2023-05-06T20:27:45.208Z,4.75
2023-05-06T20:30:13.751Z,4.60
2023-05-06T20:32:42.341Z,5.80
2023-05-06T20:35:16.841Z,82.22
2023-05-06T20:37:45.794Z,49.85
2023-05-06T20:40:16.365Z,33.92
2023-05-06T20:42:45.135Z,13.18
2023-05-06T20:45:13.640Z,4.00
2023-05-06T20:47:42.566Z,2.22
2023-05-06T20:50:17.027Z,2.53
2023-05-06T20:52:49.064Z,2.17
2023-05-06T20:55:20.799Z,2.25
2023-05-06T20:57:49.981Z,2.00
2023-05-06T21:00:19.278Z,2.63
2023-05-06T21:02:48.075Z,2.08
2023-05-06T21:05:16.786Z,5.15
2023-05-06T21:07:47.956Z,3.67
2023-05-06T21:10:16.921Z,2.40
2023-05-06T21:12:49.222Z,10.07
2023-05-06T21:15:18.085Z,3.05
2023-05-06T21:17:47.244Z,3.60
2023-05-06T21:20:16.874Z,3.17
2023-05-06T21:22:47.901Z,2.70
2023-05-06T21:25:17.706Z,3.53
2023-05-06T21:27:46.982Z,3.10
2023-05-06T21:30:16.567Z,3.90
2023-05-06T21:32:45.248Z,3.20
2023-05-06T21:35:14.260Z,3.50
2023-05-06T21:37:43.647Z,3.75
2023-05-06T21:40:15.304Z,2.40
2023-05-06T21:42:44.109Z,5.95
2023-05-06T21:45:13.995Z,18.73
2023-05-06T21:47:42.987Z,3.35
2023-05-06T21:50:12.140Z,5.05
2023-05-06T21:52:41.330Z,4.95
2023-05-06T21:55:11.727Z,22.42
2023-05-06T21:57:43.503Z,268.25
2023-05-06T22:00:14.353Z,134.82
2023-05-06T22:02:43.240Z,83.75
2023-05-06T22:05:12.435Z,42.85
2023-05-06T22:07:42.026Z,22.25
2023-05-06T22:10:11.346Z,17.35
2023-05-06T22:12:41.742Z,72.25
2023-05-06T22:15:12.188Z,38.28
2023-05-06T22:17:41.385Z,9.52
2023-05-06T22:20:12.436Z,40.75
2023-05-06T22:22:41.491Z,61.40
2023-05-06T22:25:11.242Z,6.97
2023-05-06T22:27:41.730Z,6.18
2023-05-06T22:30:11.830Z,21.42
2023-05-06T22:32:40.905Z,30.88
2023-05-06T22:35:10.439Z,29.90
2023-05-06T22:37:39.105Z,127.05
2023-05-06T22:40:09.687Z,181.50
2023-05-06T22:42:38.873Z,221.68
2023-05-06T22:45:12.439Z,76.88
2023-05-06T22:47:41.404Z,70.97
2023-05-06T22:50:10.555Z,35.45
2023-05-06T22:52:39.117Z,36.28
2023-05-06T22:55:09.902Z,43.70
2023-05-06T22:57:38.785Z,61.67
2023-05-06T23:00:12.703Z,78.35
2023-05-06T23:05:10.808Z,74.63
2023-05-06T23:07:39.809Z,54.03
2023-05-06T23:10:09.685Z,147.30
2023-05-06T23:12:38.492Z,39.85
2023-05-06T23:15:11.773Z,87.82
2023-05-06T23:17:41.029Z,196.85
2023-05-06T23:20:13.882Z,249.23
2023-05-06T23:22:42.372Z,104.57
2023-05-06T23:25:12.362Z,131.13
2023-05-06T23:27:42.665Z,164.32
2023-05-06T23:30:14.382Z,125.35
2023-05-06T23:32:43.210Z,112.30
2023-05-06T23:35:12.233Z,177.63
2023-05-06T23:37:41.061Z,80.10
2023-05-06T23:40:13.382Z,55.17
2023-05-06T23:42:42.327Z,54.38
2023-05-06T23:45:13.094Z,102.15
2023-05-06T23:47:42.198Z,158.13
2023-05-06T23:50:11.366Z,104.60
2023-05-06T23:52:40.713Z,54.03
2023-05-06T23:55:10.522Z,68.10
2023-05-06T23:57:40.093Z,197.23
